createdAt,value
2022-10-26T00:03:07.087Z,0
2022-10-26T00:08:19.006Z,0
2022-10-26T00:13:31.163Z,0
2022-10-26T00:18:43.216Z,0
2022-10-26T00:23:55.258Z,0
2022-10-26T00:29:07.112Z,0
2022-10-26T00:34:19.189Z,0
2022-10-26T00:39:31.044Z,0
2022-10-26T00:44:42.829Z,0
2022-10-26T00:49:54.790Z,0
2022-10-26T00:55:06.975Z,0
2022-10-26T01:00:19.292Z,0
2022-10-26T01:05:31.070Z,0
2022-10-26T01:10:43.075Z,0
2022-10-26T01:15:54.981Z,0
2022-10-26T01:21:06.940Z,0
2022-10-26T01:26:18.954Z,0
2022-10-26T01:31:30.833Z,0
2022-10-26T01:36:44.703Z,0
2022-10-26T01:41:55.956Z,0
2022-10-26T01:47:07.773Z,0
2022-10-26T01:52:19.709Z,0
2022-10-26T01:57:31.838Z,0
2022-10-26T02:02:43.749Z,0
2022-10-26T02:07:55.660Z,0
2022-10-26T02:13:07.686Z,0
2022-10-26T02:18:19.560Z,0
2022-10-26T02:23:31.551Z,0
2022-10-26T02:28:43.644Z,0
2022-10-26T02:33:55.471Z,0
2022-10-26T02:39:07.576Z,0
2022-10-26T02:44:19.417Z,0
2022-10-26T02:49:31.310Z,0
2022-10-26T02:54:43.402Z,0
2022-10-26T02:59:55.292Z,0
2022-10-26T03:05:07.430Z,0
2022-10-26T03:10:19.219Z,0
2022-10-26T03:15:31.264Z,0
2022-10-26T03:20:43.080Z,0
2022-10-26T03:25:55.025Z,0
2022-10-26T03:31:06.896Z,0
2022-10-26T03:36:18.569Z,0
2022-10-26T03:41:30.449Z,0
2022-10-26T03:46:42.403Z,0
2022-10-26T03:51:55.380Z,0
2022-10-26T03:57:06.908Z,0
2022-10-26T04:02:18.808Z,0
2022-10-26T04:07:30.740Z,0
2022-10-26T04:12:42.749Z,0
2022-10-26T04:17:54.554Z,0
2022-10-26T04:23:06.981Z,0
2022-10-26T04:28:38.190Z,0
2022-10-26T04:33:46.886Z,0
2022-10-26T04:38:58.862Z,0
2022-10-26T04:44:11.013Z,0
2022-10-26T04:49:23.241Z,0
2022-10-26T04:54:35.361Z,0
2022-10-26T04:59:47.511Z,0
2022-10-26T05:04:59.880Z,0
2022-10-26T05:10:11.831Z,0
2022-10-26T05:15:24.185Z,0
2022-10-26T05:25:48.420Z,0
2022-10-26T05:31:00.593Z,0
2022-10-26T05:36:12.967Z,0
2022-10-26T05:41:24.807Z,0
2022-10-26T05:46:38.065Z,0
2022-10-26T05:51:49.889Z,0
2022-10-26T05:57:02.189Z,0
2022-10-26T06:02:15.026Z,0
2022-10-26T06:07:27.147Z,0
2022-10-26T06:12:39.304Z,0
2022-10-26T06:17:51.565Z,0
2022-10-26T06:23:03.640Z,0
2022-10-26T06:28:15.875Z,0
2022-10-26T06:33:32.766Z,0
2022-10-26T06:38:48.807Z,0
2022-10-26T06:44:00.885Z,0
2022-10-26T06:49:13.245Z,0
2022-10-26T06:54:25.570Z,0
2022-10-26T06:59:38.757Z,0
2022-10-26T07:04:50.778Z,0
2022-10-26T07:10:03.217Z,0
2022-10-26T07:15:15.574Z,100
2022-10-26T07:20:27.829Z,100
2022-10-26T07:25:40.166Z,100
2022-10-26T07:30:57.055Z,100
2022-10-26T07:36:12.365Z,100
2022-10-26T07:41:24.686Z,100
2022-10-26T07:46:36.858Z,0
2022-10-26T07:51:49.284Z,100
2022-10-26T07:57:02.316Z,100
2022-10-26T08:02:15.146Z,100
2022-10-26T08:07:27.159Z,0
2022-10-26T08:12:39.502Z,100
2022-10-26T08:17:53.197Z,100
2022-10-26T08:23:04.857Z,100
2022-10-26T08:28:17.095Z,100
2022-10-26T08:33:29.314Z,100
2022-10-26T08:38:41.600Z,100
2022-10-26T08:43:53.665Z,0
2022-10-26T08:49:05.889Z,100
2022-10-26T08:54:17.919Z,100
2022-10-26T08:59:30.334Z,100
2022-10-26T09:04:42.618Z,100
2022-10-26T09:09:55.281Z,100
2022-10-26T09:15:07.484Z,100
2022-10-26T09:20:20.093Z,100
2022-10-26T09:25:32.410Z,0
2022-10-26T09:30:44.905Z,0
2022-10-26T09:35:57.925Z,0
2022-10-26T09:41:09.978Z,0
2022-10-26T09:46:22.329Z,0
2022-10-26T09:51:34.499Z,0
2022-10-26T09:56:46.931Z,0
2022-10-26T10:01:59.672Z,0
2022-10-26T10:07:11.844Z,0
2022-10-26T10:12:24.228Z,0
2022-10-26T10:17:36.723Z,0
2022-10-26T10:22:49.031Z,0
2022-10-26T10:28:01.491Z,2
2022-10-26T10:33:14.004Z,2
2022-10-26T10:38:28.148Z,3
2022-10-26T10:43:40.600Z,4
2022-10-26T10:48:53.035Z,4
2022-10-26T10:54:06.459Z,5
2022-10-26T10:59:18.880Z,7
2022-10-26T11:04:31.711Z,7
2022-10-26T11:09:46.205Z,13
2022-10-26T11:15:00.922Z,25
2022-10-26T11:20:32.420Z,92
2022-10-26T11:25:44.314Z,84
2022-10-26T11:30:57.669Z,83
2022-10-26T11:36:10.666Z,83
2022-10-26T11:41:23.768Z,81
2022-10-26T11:46:36.533Z,81
2022-10-26T11:51:49.277Z,81
2022-10-26T11:57:02.280Z,74
2022-10-26T12:02:14.353Z,76
2022-10-26T12:12:38.552Z,78
2022-10-26T12:17:52.641Z,75
2022-10-26T12:23:05.034Z,74
2022-10-26T12:38:39.333Z,71
2022-10-26T12:49:02.588Z,77
2022-10-26T12:54:15.913Z,73
2022-10-26T12:59:28.710Z,71
2022-10-26T13:04:41.633Z,70
2022-10-26T13:20:14.951Z,71
2022-10-26T13:25:26.891Z,70
2022-10-26T13:35:49.715Z,75
2022-10-26T13:41:01.822Z,75
2022-10-26T13:46:13.791Z,77
2022-10-26T14:12:06.788Z,96
2022-10-26T14:17:19.362Z,97
2022-10-26T14:22:31.263Z,98
2022-10-26T14:27:43.462Z,99
2022-10-26T14:38:05.770Z,99
2022-10-26T14:43:18.231Z,99
2022-10-26T14:48:30.502Z,99
2022-10-26T14:53:42.874Z,97
2022-10-26T14:58:55.435Z,97
2022-10-26T15:04:07.990Z,96
2022-10-26T15:09:20.290Z,95
2022-10-26T15:14:32.507Z,93
2022-10-26T15:19:44.861Z,88
2022-10-26T15:30:07.259Z,84
2022-10-26T15:40:30.521Z,80
2022-10-26T15:45:42.577Z,77
2022-10-26T15:50:54.582Z,73
2022-10-26T16:01:17.537Z,74
2022-10-26T16:06:29.687Z,74
2022-10-26T16:11:41.571Z,71
2022-10-26T16:16:53.648Z,68
2022-10-26T16:27:15.239Z,53
2022-10-26T16:37:37.075Z,36
2022-10-26T16:47:58.740Z,26
2022-10-26T16:53:10.895Z,10
2022-10-26T16:58:22.754Z,9
2022-10-26T17:03:34.796Z,7
2022-10-26T17:08:46.969Z,2
2022-10-26T17:13:59.056Z,3
2022-10-26T17:19:11.234Z,2
2022-10-26T17:24:24.568Z,1
2022-10-26T17:34:46.720Z,0
2022-10-26T17:39:58.624Z,0
2022-10-26T17:45:10.693Z,0
2022-10-26T17:50:22.872Z,0
2022-10-26T17:55:35.010Z,0
2022-10-26T18:00:50.702Z,0
2022-10-26T18:06:02.172Z,0
2022-10-26T18:11:14.618Z,0
2022-10-26T18:16:29.361Z,0
2022-10-26T18:21:40.621Z,0
2022-10-26T18:26:52.689Z,0
2022-10-26T18:32:05.090Z,0
2022-10-26T18:37:17.229Z,0
2022-10-26T18:42:29.427Z,0
2022-10-26T18:47:41.634Z,0
2022-10-26T18:52:53.437Z,0
2022-10-26T18:58:06.189Z,0
2022-10-26T19:03:20.194Z,0
2022-10-26T19:08:31.472Z,0
2022-10-26T19:13:43.657Z,0
2022-10-26T19:18:55.991Z,0
2022-10-26T19:24:08.008Z,0
2022-10-26T19:29:20.173Z,0
2022-10-26T19:34:32.934Z,0
2022-10-26T19:39:44.865Z,0
2022-10-26T19:44:56.804Z,0
2022-10-26T19:50:08.935Z,0
2022-10-26T19:55:20.798Z,0
2022-10-26T20:00:33.526Z,0
2022-10-26T20:05:45.423Z,0
2022-10-26T20:10:57.277Z,0
2022-10-26T20:16:11.623Z,0
2022-10-26T20:21:23.589Z,0
2022-10-26T20:26:35.385Z,0
2022-10-26T20:31:53.839Z,0
2022-10-26T20:37:05.923Z,0
2022-10-26T20:42:20.852Z,0
2022-10-26T20:47:34.602Z,0
2022-10-26T20:52:46.694Z,0
2022-10-26T20:57:58.936Z,0
2022-10-26T21:03:10.844Z,0
2022-10-26T21:08:22.594Z,0
2022-10-26T21:13:34.696Z,0
2022-10-26T21:18:46.719Z,0
2022-10-26T21:23:58.625Z,0
2022-10-26T21:29:10.737Z,0
2022-10-26T21:34:22.764Z,0
2022-10-26T21:44:47.015Z,0
2022-10-26T21:49:59.314Z,0
2022-10-26T21:55:10.707Z,0
2022-10-26T22:00:22.647Z,0
2022-10-26T22:05:34.661Z,0
2022-10-26T22:11:00.042Z,0
2022-10-26T22:16:08.997Z,0
2022-10-26T22:21:20.997Z,0
2022-10-26T22:26:32.947Z,0
2022-10-26T22:31:44.828Z,0
2022-10-26T22:36:56.784Z,0
2022-10-26T22:42:08.577Z,0
2022-10-26T22:47:20.494Z,0
2022-10-26T22:52:32.399Z,0
2022-10-26T22:57:44.735Z,0
2022-10-26T23:02:56.353Z,0
2022-10-26T23:08:08.235Z,0
2022-10-26T23:13:19.782Z,0
2022-10-26T23:18:31.698Z,0
2022-10-26T23:23:43.841Z,0
2022-10-26T23:28:55.669Z,0
2022-10-26T23:34:07.624Z,0
2022-10-26T23:39:19.838Z,0
2022-10-26T23:44:31.800Z,0
2022-10-26T23:49:43.588Z,0
2022-10-26T23:54:56.103Z,0
